createdAt,value
2022-12-18T00:00:13.494Z,15.51
2022-12-18T00:02:46.220Z,15.50
2022-12-18T00:05:13.742Z,15.42
2022-12-18T00:07:41.205Z,15.43
2022-12-18T00:10:08.606Z,15.42
2022-12-18T00:12:36.956Z,15.38
2022-12-18T00:15:04.333Z,15.35
2022-12-18T00:17:32.435Z,15.28
2022-12-18T00:19:59.381Z,15.35
2022-12-18T00:22:26.392Z,15.35
2022-12-18T00:24:53.764Z,15.33
2022-12-18T00:27:21.104Z,15.34
2022-12-18T00:29:49.899Z,15.30
2022-12-18T00:32:17.176Z,15.27
2022-12-18T00:34:45.112Z,15.26
2022-12-18T00:37:16.887Z,15.24
2022-12-18T00:39:54.615Z,15.19
2022-12-18T00:42:44.571Z,15.19
2022-12-18T00:45:15.847Z,15.20
2022-12-18T00:47:45.284Z,15.18
2022-12-18T00:50:14.725Z,15.15
2022-12-18T00:52:45.510Z,15.18
2022-12-18T00:55:23.453Z,15.15
2022-12-18T00:57:52.145Z,15.20
2022-12-18T01:00:20.099Z,15.19
2022-12-18T01:02:47.935Z,15.13
2022-12-18T01:05:16.910Z,15.09
2022-12-18T01:07:47.407Z,15.11
2022-12-18T01:10:18.500Z,15.10
2022-12-18T01:12:46.509Z,15.05
2022-12-18T01:15:22.255Z,15.08
2022-12-18T01:17:50.461Z,15.07
2022-12-18T01:20:19.056Z,15.00
2022-12-18T01:22:55.184Z,14.95
2022-12-18T01:25:24.910Z,14.97
2022-12-18T01:27:55.732Z,14.95
2022-12-18T01:30:23.671Z,14.93
2022-12-18T01:32:51.603Z,14.83
2022-12-18T01:35:23.537Z,14.82
2022-12-18T01:37:51.163Z,14.82
2022-12-18T01:40:18.483Z,14.88
2022-12-18T01:42:53.554Z,14.82
2022-12-18T01:45:21.726Z,14.81
2022-12-18T01:47:55.571Z,14.76
2022-12-18T01:50:23.433Z,14.72
2022-12-18T01:52:56.427Z,14.73
2022-12-18T01:55:27.501Z,14.76
2022-12-18T01:57:59.322Z,14.76
2022-12-18T02:00:40.596Z,14.71
2022-12-18T02:03:16.462Z,14.66
2022-12-18T02:05:57.620Z,14.69
2022-12-18T02:08:48.797Z,14.65
2022-12-18T02:11:33.602Z,14.64
2022-12-18T02:14:47.758Z,14.62
2022-12-18T02:17:43.798Z,14.60
2022-12-18T02:20:34.488Z,14.61
2022-12-18T02:23:22.573Z,14.61
2022-12-18T02:26:13.192Z,14.59
2022-12-18T02:28:57.666Z,14.59
2022-12-18T02:31:44.197Z,14.56
2022-12-18T02:34:15.126Z,14.52
2022-12-18T02:36:56.317Z,14.51
2022-12-18T02:39:30.727Z,14.49
2022-12-18T02:42:10.872Z,14.42
2022-12-18T02:44:56.267Z,14.44
2022-12-18T02:47:49.734Z,14.38
2022-12-18T02:50:44.722Z,14.37
2022-12-18T02:53:41.210Z,14.37
2022-12-18T02:56:20.331Z,14.37
2022-12-18T02:59:19.677Z,14.33
2022-12-18T03:02:13.106Z,14.30
2022-12-18T03:04:52.314Z,14.24
2022-12-18T03:07:53.769Z,14.25
2022-12-18T03:10:41.021Z,14.22
2022-12-18T03:13:23.926Z,14.21
2022-12-18T03:16:12.968Z,14.23
2022-12-18T03:18:58.437Z,14.18
2022-12-18T03:21:47.801Z,14.14
2022-12-18T03:24:24.701Z,14.12
2022-12-18T03:27:11.194Z,14.15
2022-12-18T03:29:47.988Z,14.09
2022-12-18T03:32:33.998Z,14.07
2022-12-18T03:35:22.613Z,14.07
2022-12-18T03:38:09.854Z,14.05
2022-12-18T03:40:57.660Z,14.04
2022-12-18T03:43:51.628Z,14.01
2022-12-18T03:46:31.169Z,14.03
2022-12-18T03:49:33.694Z,14.07
2022-12-18T03:52:44.435Z,14.05
2022-12-18T03:55:17.163Z,14.04
2022-12-18T03:57:57.865Z,14.11
2022-12-18T04:00:49.320Z,14.00
2022-12-18T04:03:37.645Z,13.98
2022-12-18T04:06:14.354Z,14.00
2022-12-18T04:08:59.320Z,13.98
2022-12-18T04:11:35.969Z,13.93
2022-12-18T04:14:17.617Z,13.89
2022-12-18T04:16:57.007Z,13.83
2022-12-18T04:19:33.217Z,13.87
2022-12-18T04:22:10.994Z,13.89
2022-12-18T04:24:48.855Z,13.86
2022-12-18T04:27:37.534Z,13.84
2022-12-18T04:30:16.842Z,13.83
2022-12-18T04:32:58.479Z,13.74
2022-12-18T04:35:28.797Z,13.70
2022-12-18T04:37:58.269Z,13.69
2022-12-18T04:40:41.897Z,13.69
2022-12-18T04:43:23.397Z,13.67
2022-12-18T04:45:53.315Z,13.65
2022-12-18T04:48:24.365Z,13.57
2022-12-18T04:50:59.787Z,13.53
2022-12-18T04:53:27.567Z,13.51
2022-12-18T04:56:07.948Z,13.57
2022-12-18T04:58:45.918Z,13.55
2022-12-18T05:01:17.381Z,13.58
2022-12-18T05:04:11.160Z,13.54
2022-12-18T05:06:52.655Z,13.56
2022-12-18T05:09:25.839Z,13.62
2022-12-18T05:11:58.078Z,13.58
2022-12-18T05:14:37.910Z,13.57
2022-12-18T05:17:10.354Z,13.65
2022-12-18T05:19:48.934Z,13.53
2022-12-18T05:22:30.266Z,13.63
2022-12-18T05:25:09.356Z,13.60
2022-12-18T05:27:40.566Z,13.64
2022-12-18T05:30:14.336Z,13.62
2022-12-18T05:32:44.323Z,13.57
2022-12-18T05:35:15.516Z,13.54
2022-12-18T05:37:45.703Z,13.50
2022-12-18T05:40:21.100Z,13.49
2022-12-18T05:42:54.375Z,13.43
2022-12-18T05:45:29.838Z,13.38
2022-12-18T05:47:57.275Z,13.44
2022-12-18T05:50:26.841Z,13.34
2022-12-18T05:52:54.772Z,13.40
2022-12-18T05:55:35.733Z,13.42
2022-12-18T05:58:08.849Z,13.37
2022-12-18T06:00:44.757Z,13.31
2022-12-18T06:03:23.362Z,13.40
2022-12-18T06:06:03.910Z,13.40
2022-12-18T06:08:46.883Z,13.40
2022-12-18T06:11:21.867Z,13.32
2022-12-18T06:13:59.288Z,13.39
2022-12-18T06:16:40.471Z,13.25
2022-12-18T06:19:22.862Z,13.29
2022-12-18T06:22:00.560Z,13.39
2022-12-18T06:24:34.791Z,13.42
2022-12-18T06:27:10.167Z,13.34
2022-12-18T06:29:47.077Z,13.37
2022-12-18T06:32:20.832Z,13.37
2022-12-18T06:34:50.253Z,13.41
2022-12-18T06:37:29.214Z,13.34
2022-12-18T06:40:07.999Z,13.44
2022-12-18T06:42:44.498Z,13.48
2022-12-18T06:45:24.743Z,13.49
2022-12-18T06:48:01.348Z,13.45
2022-12-18T06:50:40.440Z,13.47
2022-12-18T06:53:13.245Z,13.50
2022-12-18T06:55:45.345Z,13.37
2022-12-18T06:58:22.814Z,13.41
2022-12-18T07:01:20.492Z,13.49
2022-12-18T07:04:19.116Z,13.55
2022-12-18T07:07:03.115Z,13.52
2022-12-18T07:09:46.665Z,13.53
2022-12-18T07:12:26.501Z,13.51
2022-12-18T07:15:02.454Z,13.59
2022-12-18T07:17:47.167Z,13.54
2022-12-18T07:20:29.411Z,13.54
2022-12-18T07:23:12.343Z,13.52
2022-12-18T07:25:51.679Z,13.54
2022-12-18T07:28:27.957Z,13.48
2022-12-18T07:31:00.343Z,13.49
2022-12-18T07:33:33.854Z,13.52
2022-12-18T07:36:09.084Z,13.50
2022-12-18T07:38:45.112Z,13.54
2022-12-18T07:41:22.028Z,13.50
2022-12-18T07:43:52.221Z,13.53
2022-12-18T07:46:26.351Z,13.57
2022-12-18T07:48:59.449Z,13.51
2022-12-18T07:51:34.436Z,13.56
2022-12-18T07:54:06.956Z,13.61
2022-12-18T07:56:34.196Z,13.59
2022-12-18T07:59:04.344Z,13.58
2022-12-18T08:01:31.581Z,13.58
2022-12-18T08:04:07.470Z,13.59
2022-12-18T08:06:37.680Z,13.54
2022-12-18T08:09:04.721Z,13.59
2022-12-18T08:11:33.335Z,13.62
2022-12-18T08:14:21.980Z,13.62
2022-12-18T08:16:59.377Z,13.64
2022-12-18T08:19:46.474Z,13.66
2022-12-18T08:22:32.922Z,13.68
2022-12-18T08:25:18.011Z,13.59
2022-12-18T08:28:15.245Z,13.60
2022-12-18T08:31:04.034Z,13.50
2022-12-18T08:33:41.458Z,13.71
2022-12-18T08:36:16.984Z,13.76
2022-12-18T08:38:51.997Z,13.81
2022-12-18T08:41:28.720Z,13.72
2022-12-18T08:44:15.743Z,13.76
2022-12-18T08:46:48.646Z,13.70
2022-12-18T08:49:17.837Z,13.79
2022-12-18T08:51:47.838Z,13.80
2022-12-18T08:54:20.482Z,13.86
2022-12-18T08:56:49.945Z,13.95
2022-12-18T08:59:20.252Z,14.14
2022-12-18T09:01:53.464Z,14.32
2022-12-18T09:04:23.659Z,14.48
2022-12-18T09:06:51.804Z,14.59
2022-12-18T09:09:26.838Z,14.65
2022-12-18T09:12:00.282Z,14.74
2022-12-18T09:14:46.580Z,14.94
2022-12-18T09:17:22.301Z,15.26
2022-12-18T09:19:59.211Z,15.51
2022-12-18T09:22:26.237Z,15.73
2022-12-18T09:24:55.704Z,16.03
2022-12-18T09:27:32.878Z,16.32
2022-12-18T09:30:03.135Z,16.75
2022-12-18T09:32:32.671Z,17.11
2022-12-18T09:35:05.236Z,17.45
2022-12-18T09:37:50.004Z,17.78
2022-12-18T09:40:19.461Z,18.19
2022-12-18T09:43:00.834Z,18.59
2022-12-18T09:45:39.150Z,18.80
2022-12-18T09:48:08.307Z,18.79
2022-12-18T09:50:37.850Z,19.02
2022-12-18T09:53:07.870Z,19.07
2022-12-18T09:55:43.859Z,19.44
2022-12-18T09:58:14.100Z,19.70
2022-12-18T10:00:46.938Z,19.67
2022-12-18T10:03:15.329Z,19.91
2022-12-18T10:06:01.971Z,20.20
2022-12-18T10:08:39.995Z,20.48
2022-12-18T10:11:28.206Z,20.77
2022-12-18T10:14:12.764Z,20.73
2022-12-18T10:16:57.947Z,20.84
2022-12-18T10:19:41.924Z,20.92
2022-12-18T10:22:42.753Z,21.16
2022-12-18T10:25:55.470Z,21.28
2022-12-18T10:28:31.015Z,21.33
2022-12-18T10:31:27.224Z,21.23
2022-12-18T10:34:01.215Z,21.34
2022-12-18T10:36:29.474Z,21.78
2022-12-18T10:39:15.600Z,21.79
2022-12-18T10:41:50.559Z,22.50
2022-12-18T10:44:29.179Z,22.84
2022-12-18T10:47:08.744Z,23.23
2022-12-18T10:49:44.106Z,23.60
2022-12-18T10:52:26.749Z,24.02
2022-12-18T10:54:59.515Z,24.46
2022-12-18T10:57:39.164Z,24.99
2022-12-18T11:00:27.162Z,25.29
2022-12-18T11:02:58.026Z,25.93
2022-12-18T11:05:41.556Z,26.41
2022-12-18T11:08:23.979Z,26.89
2022-12-18T11:10:54.567Z,27.17
2022-12-18T11:13:35.413Z,27.61
2022-12-18T11:16:10.396Z,27.55
2022-12-18T11:18:40.442Z,27.87
2022-12-18T11:21:09.324Z,28.31
2022-12-18T11:23:46.099Z,28.75
2022-12-18T11:26:26.975Z,28.82
2022-12-18T11:29:10.527Z,29.29
2022-12-18T11:31:40.586Z,29.45
2022-12-18T11:34:28.956Z,29.56
2022-12-18T11:36:56.564Z,29.88
2022-12-18T11:39:37.714Z,29.89
2022-12-18T11:42:25.950Z,30.27
2022-12-18T11:45:01.628Z,30.60
2022-12-18T11:47:39.213Z,30.55
2022-12-18T11:50:44.162Z,31.05
2022-12-18T11:53:12.628Z,30.72
2022-12-18T11:55:42.859Z,30.88
2022-12-18T11:58:12.807Z,31.08
2022-12-18T12:01:30.717Z,31.17
2022-12-18T12:04:10.062Z,31.55
2022-12-18T12:07:03.228Z,31.68
2022-12-18T12:09:48.219Z,31.66
2022-12-18T12:12:49.108Z,31.64
2022-12-18T12:15:37.097Z,31.64
2022-12-18T12:18:11.254Z,31.41
2022-12-18T12:20:48.096Z,31.52
2022-12-18T12:23:27.799Z,31.71
2022-12-18T12:26:04.197Z,31.35
2022-12-18T12:28:45.170Z,31.18
2022-12-18T12:31:39.958Z,31.10
2022-12-18T12:34:24.883Z,31.30
2022-12-18T12:37:13.362Z,30.97
2022-12-18T12:39:45.806Z,30.53
2022-12-18T12:42:50.832Z,30.68
2022-12-18T12:45:49.014Z,31.02
2022-12-18T12:48:40.997Z,30.71
2022-12-18T12:51:32.385Z,29.18
2022-12-18T12:54:06.495Z,29.37
2022-12-18T12:56:52.858Z,26.99
2022-12-18T12:59:35.464Z,27.94
2022-12-18T13:02:32.488Z,27.53
2022-12-18T13:05:24.785Z,26.82
2022-12-18T13:08:08.826Z,27.48
2022-12-18T13:10:47.354Z,27.45
2022-12-18T13:13:24.459Z,28.07
2022-12-18T13:16:15.922Z,27.12
2022-12-18T13:19:00.119Z,25.44
2022-12-18T13:21:31.793Z,26.39
2022-12-18T13:24:29.600Z,26.84
2022-12-18T13:26:56.620Z,26.60
2022-12-18T13:29:46.333Z,27.23
2022-12-18T13:32:28.897Z,24.89
2022-12-18T13:35:18.981Z,25.51
2022-12-18T13:38:08.958Z,25.72
2022-12-18T13:40:48.967Z,25.85
2022-12-18T13:43:21.394Z,26.02
2022-12-18T13:45:54.533Z,25.45
2022-12-18T13:48:34.317Z,24.92
2022-12-18T13:51:12.202Z,25.32
2022-12-18T13:53:59.020Z,25.03
2022-12-18T13:56:35.019Z,24.60
2022-12-18T13:59:31.657Z,23.39
2022-12-18T14:02:27.432Z,24.02
2022-12-18T14:05:12.256Z,22.36
2022-12-18T14:07:51.588Z,23.91
2022-12-18T14:10:48.843Z,23.55
2022-12-18T14:13:35.746Z,24.61
2022-12-18T14:16:30.368Z,23.38
2022-12-18T14:19:16.213Z,23.95
2022-12-18T14:21:54.637Z,23.27
2022-12-18T14:24:44.124Z,24.12
2022-12-18T14:27:39.923Z,24.80
2022-12-18T14:33:52.940Z,23.77
2022-12-18T14:36:34.443Z,24.41
2022-12-18T14:39:30.202Z,24.44
2022-12-18T14:45:45.239Z,23.58
2022-12-18T14:48:36.150Z,24.08
2022-12-18T14:54:22.834Z,23.55
2022-12-18T14:57:28.867Z,23.96
2022-12-18T15:00:09.511Z,24.31
2022-12-18T15:02:46.461Z,22.94
2022-12-18T15:05:40.424Z,22.67
2022-12-18T15:08:53.206Z,23.36
2022-12-18T15:11:46.878Z,23.23
2022-12-18T15:14:33.308Z,22.88
2022-12-18T15:17:08.788Z,22.15
2022-12-18T15:20:03.359Z,22.73
2022-12-18T15:22:42.347Z,21.43
2022-12-18T15:25:57.726Z,21.37
2022-12-18T15:28:38.262Z,20.09
2022-12-18T15:31:17.036Z,21.14
2022-12-18T15:34:03.638Z,21.06
2022-12-18T15:36:41.449Z,20.42
2022-12-18T15:39:23.088Z,20.97
2022-12-18T15:42:14.249Z,20.67
2022-12-18T15:45:01.191Z,20.55
2022-12-18T15:47:43.723Z,20.25
2022-12-18T15:50:26.884Z,20.28
2022-12-18T15:56:12.911Z,20.03
2022-12-18T15:59:12.826Z,19.83
2022-12-18T16:01:46.974Z,19.15
2022-12-18T16:04:35.323Z,19.55
2022-12-18T16:07:25.558Z,19.85
2022-12-18T16:10:18.916Z,19.63
2022-12-18T16:12:55.414Z,19.27
2022-12-18T16:15:36.261Z,19.76
2022-12-18T16:18:30.047Z,19.75
2022-12-18T16:21:17.869Z,19.41
2022-12-18T16:23:59.782Z,19.31
2022-12-18T16:26:44.316Z,19.39
2022-12-18T16:29:30.951Z,19.39
2022-12-18T16:32:17.817Z,18.93
2022-12-18T16:35:12.949Z,18.01
2022-12-18T16:37:53.947Z,18.65
2022-12-18T16:41:07.433Z,18.35
2022-12-18T16:43:51.601Z,18.38
2022-12-18T16:46:43.597Z,18.38
2022-12-18T16:49:36.149Z,18.54
2022-12-18T16:52:19.275Z,18.42
2022-12-18T16:55:20.526Z,18.63
2022-12-18T17:01:05.128Z,18.05
2022-12-18T17:06:57.894Z,18.31
2022-12-18T17:10:12.748Z,17.98
2022-12-18T17:13:25.968Z,17.72
2022-12-18T17:16:15.000Z,17.91
2022-12-18T17:19:01.941Z,17.80
2022-12-18T17:21:40.502Z,17.78
2022-12-18T17:24:32.980Z,17.96
2022-12-18T17:27:33.433Z,17.41
2022-12-18T17:33:29.728Z,17.69
2022-12-18T17:36:19.380Z,17.09
2022-12-18T17:39:15.403Z,17.70
2022-12-18T17:42:14.860Z,17.30
2022-12-18T17:45:11.467Z,17.66
2022-12-18T17:48:07.097Z,17.64
2022-12-18T17:50:52.538Z,17.70
2022-12-18T17:53:38.649Z,17.89
2022-12-18T17:56:20.229Z,17.88
2022-12-18T17:59:10.956Z,17.86
2022-12-18T18:02:07.380Z,17.25
2022-12-18T18:04:45.780Z,17.51
2022-12-18T18:14:44.214Z,17.45
2022-12-18T18:17:33.111Z,17.26
2022-12-18T18:20:22.761Z,17.45
2022-12-18T18:23:09.001Z,17.37
2022-12-18T18:25:48.065Z,17.69
2022-12-18T18:28:30.211Z,17.64
2022-12-18T18:31:11.317Z,17.48
2022-12-18T18:34:13.869Z,17.59
2022-12-18T18:37:11.673Z,17.45
2022-12-18T18:40:13.667Z,17.57
2022-12-18T18:43:09.642Z,17.68
2022-12-18T18:45:50.913Z,17.50
2022-12-18T18:48:28.761Z,17.71
2022-12-18T18:51:22.567Z,17.75
2022-12-18T18:54:10.041Z,17.73
2022-12-18T18:57:20.527Z,17.78
2022-12-18T19:00:05.316Z,17.36
2022-12-18T19:02:49.323Z,17.33
2022-12-18T19:05:34.597Z,17.20
2022-12-18T19:08:31.775Z,17.61
2022-12-18T19:11:36.563Z,17.79
2022-12-18T19:14:22.500Z,17.85
2022-12-18T19:17:18.732Z,17.93
2022-12-18T19:23:21.221Z,18.04
2022-12-18T19:26:27.331Z,18.07
2022-12-18T19:29:02.791Z,18.06
2022-12-18T19:31:37.225Z,18.08
2022-12-18T19:34:05.518Z,18.07
2022-12-18T19:36:36.276Z,18.06
2022-12-18T19:39:14.473Z,18.09
2022-12-18T19:41:57.997Z,17.98
2022-12-18T19:44:49.633Z,18.03
2022-12-18T19:47:45.107Z,18.05
2022-12-18T19:50:15.378Z,18.03
2022-12-18T19:56:00.728Z,18.06
2022-12-18T19:58:52.884Z,18.04
2022-12-18T20:01:32.978Z,18.04
2022-12-18T20:07:17.018Z,17.98
2022-12-18T20:10:09.055Z,17.98
2022-12-18T20:13:02.092Z,17.96
2022-12-18T20:15:52.104Z,17.89
2022-12-18T20:18:43.419Z,17.90
2022-12-18T20:21:17.422Z,17.91
2022-12-18T20:24:16.386Z,17.88
2022-12-18T20:27:18.276Z,17.86
2022-12-18T20:30:06.862Z,17.84
2022-12-18T20:32:53.267Z,17.80
2022-12-18T20:35:50.306Z,17.82
2022-12-18T20:38:42.168Z,17.76
2022-12-18T20:41:37.683Z,17.57
2022-12-18T20:44:24.071Z,17.62
2022-12-18T20:46:53.042Z,17.52
2022-12-18T20:49:38.310Z,17.48
2022-12-18T20:52:10.511Z,17.50
2022-12-18T20:55:06.353Z,17.52
2022-12-18T20:58:00.795Z,17.53
2022-12-18T21:00:49.897Z,17.50
2022-12-18T21:03:26.186Z,17.43
2022-12-18T21:06:00.834Z,17.43
2022-12-18T21:08:53.169Z,17.44
2022-12-18T21:12:05.745Z,17.39
2022-12-18T21:14:44.956Z,17.35
2022-12-18T21:17:27.636Z,17.29
2022-12-18T21:20:17.305Z,17.32
2022-12-18T21:23:16.372Z,17.25
2022-12-18T21:26:09.689Z,17.23
2022-12-18T21:29:14.552Z,17.18
2022-12-18T21:32:09.425Z,17.19
2022-12-18T21:34:52.273Z,17.21
2022-12-18T21:37:19.467Z,17.19
2022-12-18T21:39:47.730Z,17.17
2022-12-18T21:42:36.300Z,17.13
2022-12-18T21:45:13.857Z,17.18
2022-12-18T21:47:49.757Z,17.17
2022-12-18T21:50:17.614Z,17.13
2022-12-18T21:52:52.445Z,17.12
2022-12-18T21:55:20.519Z,17.11
2022-12-18T21:57:47.796Z,17.11
2022-12-18T22:00:19.756Z,17.13
2022-12-18T22:03:17.723Z,17.12
2022-12-18T22:05:39.394Z,17.01
2022-12-18T22:08:09.359Z,16.94
2022-12-18T22:10:39.694Z,16.99
2022-12-18T22:13:12.241Z,17.02
2022-12-18T22:15:41.884Z,16.98
2022-12-18T22:18:20.830Z,16.98
2022-12-18T22:20:48.143Z,16.91
2022-12-18T22:23:16.990Z,16.90
2022-12-18T22:25:44.114Z,16.89
2022-12-18T22:28:29.783Z,16.84
2022-12-18T22:30:59.461Z,16.77
2022-12-18T22:33:32.667Z,16.82
2022-12-18T22:36:04.989Z,16.74
2022-12-18T22:38:32.124Z,16.74
2022-12-18T22:41:01.391Z,16.72
2022-12-18T22:43:28.497Z,16.72
2022-12-18T22:45:57.910Z,16.63
2022-12-18T22:48:28.282Z,16.61
2022-12-18T22:50:59.587Z,16.62
2022-12-18T22:53:29.793Z,16.62
2022-12-18T22:56:05.650Z,16.56
2022-12-18T22:58:33.839Z,16.53
2022-12-18T23:01:07.279Z,16.51
2022-12-18T23:03:37.641Z,16.40
2022-12-18T23:06:05.971Z,16.44
2022-12-18T23:08:33.792Z,16.35
2022-12-18T23:11:01.187Z,16.38
2022-12-18T23:13:29.156Z,16.37
2022-12-18T23:15:56.289Z,16.33
2022-12-18T23:18:35.460Z,16.35
2022-12-18T23:21:11.488Z,16.28
2022-12-18T23:23:42.193Z,16.28
2022-12-18T23:26:14.424Z,16.28
2022-12-18T23:28:42.929Z,16.25
2022-12-18T23:31:16.304Z,16.28
2022-12-18T23:33:46.454Z,16.25
2022-12-18T23:36:14.225Z,16.24
2022-12-18T23:38:42.216Z,16.32
2022-12-18T23:41:14.952Z,16.28
2022-12-18T23:43:42.168Z,16.30
2022-12-18T23:46:14.353Z,16.21
2022-12-18T23:48:41.344Z,16.19
2022-12-18T23:51:09.384Z,16.16
2022-12-18T23:53:36.904Z,16.16
2022-12-18T23:56:10.528Z,16.13
2022-12-18T23:58:38.183Z,16.09
